KAYS/AYS METAR and TAF weather

Enter ICAO airport designator
Station Type Date Time Source
KAYS METAR 2019/04/19 22:35 UTC NOAA

KAYS 192235Z AUTO 24010G15KT 210V270 10SM SCT034 SCT041 SCT048 23/13 A2959 RMK AO2 T02320130 TSNO


Station Type Date Time Source
KAYS Decoded METAR 2019/04/19 22:35 UTC NOAA

Waycross / Ware County, Ga, GA, United States (KAYS) 31-15N 082-24W 46M
Apr 19, 2019 - 06:35 PM EDT / 2019.04.19 2235 UTC
Wind: from the WSW (240 degrees) at 12 MPH (10 KT) gusting to 17 MPH (15 KT) (direction variable):0
Visibility: 10 mile(s):0
Sky conditions: partly cloudy
Temperature: 73.8 F (23.2 C)
Dew Point: 55.4 F (13.0 C)
Relative Humidity: 52%
Pressure (altimeter): 29.59 in. Hg (1002 hPa)
ob: KAYS 192235Z AUTO 24010G15KT 210V270 10SM SCT034 SCT041 SCT048 23/13 A2959 RMK AO2 T02320130 TSNO
cycle: 22

Station Type Date Time Source
KAYS TAF UTC NOAA

Error!

Example: see airport list